Time;durP1;ratioP1;P1;durP2;ratioP2;P2;SDS_P1;SDS_P2;PMS_P1;PMS_P2;Temp;Humidity;BMP_temperature;BMP_pressure;BME280_temperature;BME280_humidity;BME280_pressure;Samples;Min_cycle;Max_cycle;Signal;HPM_P1;HPM_P2
2023/01/08 00:02:23;;;;;;;2.78;2.58;;;19.00;62.30;;;;;;4969046;28;20221;-68
2023/01/08 00:04:49;;;;;;;2.88;2.67;;;19.00;62.30;;;;;;4991060;28;20296;-67
2023/01/08 00:07:15;;;;;;;3.30;3.00;;;19.00;62.30;;;;;;4958525;28;20185;-66
2023/01/08 00:09:41;;;;;;;3.05;2.75;;;19.00;62.30;;;;;;4958535;28;20178;-67
2023/01/08 00:12:06;;;;;;;3.17;2.70;;;19.00;62.20;;;;;;4955334;28;20562;-67
2023/01/08 00:14:32;;;;;;;3.20;2.90;;;19.00;62.30;;;;;;4950866;28;20213;-67
2023/01/08 00:16:58;;;;;;;3.28;2.97;;;19.00;62.20;;;;;;4953414;28;20217;-67
2023/01/08 00:19:24;;;;;;;2.92;2.63;;;19.00;62.20;;;;;;4954585;28;20214;-67
2023/01/08 00:21:49;;;;;;;4.03;3.00;;;19.00;62.20;;;;;;4949296;29;20254;-67
2023/01/08 00:24:15;;;;;;;3.13;2.72;;;19.00;63.00;;;;;;4964357;28;20210;-67
2023/01/08 00:26:41;;;;;;;2.90;2.55;;;19.00;62.20;;;;;;4974071;28;20186;-67
2023/01/08 00:29:07;;;;;;;3.15;2.85;;;19.00;62.20;;;;;;4966990;28;20196;-67
2023/01/08 00:31:32;;;;;;;3.00;2.70;;;19.00;62.20;;;;;;4974067;28;20193;-67
2023/01/08 00:33:58;;;;;;;3.08;2.75;;;19.00;62.20;;;;;;4958125;28;20198;-67
2023/01/08 00:36:24;;;;;;;2.70;2.50;;;19.00;62.20;;;;;;4972380;28;20194;-67
2023/01/08 00:38:50;;;;;;;3.10;2.80;;;19.00;62.20;;;;;;4959058;28;20596;-67
2023/01/08 00:41:16;;;;;;;3.10;2.70;;;19.00;62.20;;;;;;4964143;28;20209;-67
2023/01/08 00:43:41;;;;;;;2.58;2.35;;;19.00;62.20;;;;;;4967095;28;20185;-67
2023/01/08 00:46:08;;;;;;;3.33;2.53;;;19.00;62.20;;;;;;4957007;28;20216;-67
2023/01/08 00:48:37;;;;;;;4.35;2.88;;;19.00;62.20;;;;;;4959261;28;20231;-67
2023/01/08 00:51:06;;;;;;;3.17;2.88;;;19.00;62.20;;;;;;4973743;28;20213;-67
2023/01/08 00:53:32;;;;;;;3.30;3.00;;;19.10;62.30;;;;;;4973476;28;20182;-67
2023/01/08 00:56:07;;;;;;;3.00;2.65;;;19.00;62.20;;;;;;4973275;28;20205;-67
2023/01/08 00:58:33;;;;;;;4.10;3.35;;;19.00;62.10;;;;;;4949590;28;20186;-67
2023/01/08 01:01:00;;;;;;;3.40;2.60;;;19.00;62.10;;;;;;4966343;28;20326;-67
2023/01/08 01:03:26;;;;;;;2.92;2.72;;;19.00;62.10;;;;;;4964644;28;20223;-67
2023/01/08 01:06:03;;;;;;;3.05;2.80;;;19.00;62.20;;;;;;4966506;28;20225;-67
2023/01/08 01:08:29;;;;;;;2.92;2.72;;;19.00;62.00;;;;;;4970401;28;20186;-67
2023/01/08 01:10:55;;;;;;;2.92;2.60;;;19.00;62.10;;;;;;4964089;28;20239;-67
2023/01/08 01:13:20;;;;;;;3.05;2.85;;;19.00;62.10;;;;;;4949219;28;20268;-67
2023/01/08 01:15:59;;;;;;;2.88;2.67;;;19.00;62.10;;;;;;4973199;28;20209;-67
2023/01/08 01:18:26;;;;;;;3.15;2.65;;;19.00;62.10;;;;;;4969811;28;20221;-67
2023/01/08 01:20:52;;;;;;;2.65;2.45;;;19.00;62.10;;;;;;4967919;28;20221;-67
2023/01/08 01:23:18;;;;;;;2.90;2.70;;;19.00;62.10;;;;;;4964333;28;20182;-67
2023/01/08 01:25:44;;;;;;;3.10;2.75;;;19.10;62.30;;;;;;4949324;28;20201;-67
2023/01/08 01:28:09;;;;;;;2.53;2.33;;;19.00;62.10;;;;;;4964554;28;20188;-67
2023/01/08 01:30:35;;;;;;;2.72;2.53;;;19.10;62.30;;;;;;4965552;28;20260;-67
2023/01/08 01:33:01;;;;;;;2.60;2.40;;;19.00;62.30;;;;;;4969976;28;20183;-67
2023/01/08 01:35:27;;;;;;;3.08;2.58;;;19.00;62.00;;;;;;4962673;28;20218;-67
2023/01/08 01:37:52;;;;;;;2.80;2.60;;;19.00;62.00;;;;;;4961493;28;20205;-67
2023/01/08 01:40:18;;;;;;;2.60;2.40;;;19.10;62.20;;;;;;4969701;28;20205;-67
2023/01/08 01:42:44;;;;;;;2.75;2.55;;;19.00;62.80;;;;;;4963119;28;20237;-67
2023/01/08 01:45:13;;;;;;;2.65;2.45;;;19.00;62.00;;;;;;5000992;23;20705;-70
2023/01/08 01:47:40;;;;;;;3.22;2.80;;;19.00;62.00;;;;;;4975301;28;20191;-70
2023/01/08 01:50:19;;;;;;;3.47;2.70;;;19.10;62.20;;;;;;4976034;28;20196;-70
2023/01/08 01:53:09;;;;;;;2.60;2.40;;;19.10;62.20;;;;;;4986581;28;20185;-70
2023/01/08 01:55:39;;;;;;;2.78;2.50;;;19.00;62.00;;;;;;4976114;28;20213;-70
2023/01/08 01:58:16;;;;;;;2.53;2.33;;;19.00;62.00;;;;;;4975603;28;20247;-70
2023/01/08 02:00:43;;;;;;;2.72;2.53;;;19.10;62.10;;;;;;4988665;28;20209;-70
2023/01/08 02:03:12;;;;;;;2.72;2.33;;;19.00;62.00;;;;;;4988681;28;20193;-70
2023/01/08 02:06:07;;;;;;;2.67;2.47;;;19.10;62.10;;;;;;4980361;28;20708;-70
2023/01/08 02:08:48;;;;;;;3.10;2.90;;;19.00;62.00;;;;;;4966161;28;20192;-70
2023/01/08 02:11:28;;;;;;;4.32;2.85;;;19.10;62.00;;;;;;4983675;28;20240;-70
2023/01/08 02:14:11;;;;;;;2.70;2.50;;;19.00;62.00;;;;;;4978151;28;20186;-70
2023/01/08 02:16:43;;;;;;;2.60;2.40;;;19.00;62.00;;;;;;4975645;28;20228;-70
2023/01/08 02:19:43;;;;;;;2.88;2.63;;;19.00;62.00;;;;;;4984435;28;20299;-70
2023/01/08 02:22:33;;;;;;;2.60;2.40;;;19.00;61.90;;;;;;4976689;28;20178;-70
2023/01/08 02:25:36;;;;;;;2.67;2.47;;;19.00;62.00;;;;;;4977186;28;20213;-70
2023/01/08 02:28:09;;;;;;;2.33;2.13;;;19.10;62.00;;;;;;4956051;28;20650;-70
2023/01/08 02:30:36;;;;;;;2.58;2.38;;;19.00;61.90;;;;;;4988277;28;20188;-70
2023/01/08 02:33:02;;;;;;;2.67;2.47;;;19.10;62.10;;;;;;4972326;28;20185;-70
2023/01/08 02:35:40;;;;;;;2.60;2.40;;;19.00;61.90;;;;;;4971744;28;20213;-70
2023/01/08 02:38:12;;;;;;;2.83;2.63;;;19.10;62.00;;;;;;4979886;28;20186;-70
2023/01/08 02:41:04;;;;;;;3.45;2.50;;;19.00;61.90;;;;;;4979725;28;20340;-70
2023/01/08 02:43:53;;;;;;;2.83;2.63;;;19.10;62.00;;;;;;5004336;28;20268;-70
2023/01/08 02:46:29;;;;;;;2.80;2.60;;;19.10;61.90;;;;;;4987843;28;20224;-70
2023/01/08 02:49:06;;;;;;;2.63;2.42;;;19.10;62.00;;;;;;4974103;28;20204;-70
2023/01/08 02:51:53;;;;;;;3.03;2.83;;;19.10;62.00;;;;;;4983261;28;20189;-70
2023/01/08 02:54:25;;;;;;;2.85;2.25;;;19.10;62.00;;;;;;4988745;28;20190;-70
2023/01/08 02:57:08;;;;;;;2.00;1.90;;;19.10;62.00;;;;;;4975301;28;20192;-70
2023/01/08 02:59:37;;;;;;;2.63;2.40;;;19.10;62.00;;;;;;4971910;28;20259;-70
2023/01/08 03:02:03;;;;;;;3.45;2.67;;;19.00;61.90;;;;;;4970224;28;20181;-70
2023/01/08 03:04:40;;;;;;;2.67;2.47;;;19.00;61.90;;;;;;4980863;28;20189;-70
2023/01/08 03:07:06;;;;;;;2.60;2.40;;;19.10;61.90;;;;;;4986743;28;20176;-70
2023/01/08 03:09:32;;;;;;;2.58;2.38;;;19.10;62.00;;;;;;4981560;28;20189;-70
2023/01/08 03:12:20;;;;;;;2.50;2.30;;;19.10;62.00;;;;;;4985798;28;20173;-70
2023/01/08 03:14:57;;;;;;;2.72;2.50;;;19.00;61.90;;;;;;4986680;28;20245;-70
2023/01/08 03:17:34;;;;;;;2.47;2.30;;;19.10;62.00;;;;;;4974823;28;20193;-70
2023/01/08 03:20:10;;;;;;;2.75;2.55;;;19.10;62.00;;;;;;4996029;28;20228;-70
2023/01/08 03:22:40;;;;;;;3.03;2.70;;;19.10;62.00;;;;;;4975460;28;20185;-70
2023/01/08 03:25:08;;;;;;;2.53;2.33;;;19.10;62.00;;;;;;4965906;28;20216;-70
2023/01/08 03:27:44;;;;;;;2.40;2.20;;;19.10;62.00;;;;;;4997781;28;20184;-70
2023/01/08 03:30:12;;;;;;;2.72;2.53;;;19.10;62.00;;;;;;4971556;28;20185;-70
2023/01/08 03:32:42;;;;;;;2.33;2.13;;;19.10;62.00;;;;;;4975060;28;20204;-70
2023/01/08 03:35:13;;;;;;;2.63;2.42;;;19.10;62.00;;;;;;4990123;28;20209;-70
2023/01/08 03:37:45;;;;;;;2.45;2.25;;;19.10;62.10;;;;;;4994405;28;20215;-70
2023/01/08 03:40:28;;;;;;;3.83;2.65;;;19.10;62.00;;;;;;4982496;28;20223;-70
2023/01/08 03:42:56;;;;;;;2.35;2.15;;;19.10;62.00;;;;;;4994591;28;20290;-70
2023/01/08 03:45:26;;;;;;;2.17;2.08;;;19.10;62.00;;;;;;4977235;28;20253;-70
2023/01/08 03:47:55;;;;;;;2.50;2.30;;;19.10;62.00;;;;;;5003972;28;20259;-70
2023/01/08 03:50:27;;;;;;;2.78;2.50;;;19.10;62.00;;;;;;4993741;28;20181;-70
2023/01/08 03:52:52;;;;;;;2.58;2.38;;;19.10;62.10;;;;;;4968476;28;20185;-70
2023/01/08 03:55:18;;;;;;;2.13;2.03;;;19.10;62.00;;;;;;4991191;28;20304;-71
2023/01/08 03:57:44;;;;;;;2.35;2.20;;;19.10;62.10;;;;;;4982461;28;20203;-71
2023/01/08 04:00:11;;;;;;;2.55;2.05;;;19.10;62.10;;;;;;4989861;28;20205;-71
2023/01/08 04:02:36;;;;;;;2.47;2.28;;;19.10;62.10;;;;;;4994377;28;20694;-71
2023/01/08 04:05:02;;;;;;;2.67;2.42;;;19.10;62.10;;;;;;4979798;28;20212;-71
2023/01/08 04:07:28;;;;;;;2.20;2.10;;;19.10;62.10;;;;;;4990753;28;20192;-71
2023/01/08 04:09:54;;;;;;;2.80;2.60;;;19.10;62.10;;;;;;4976041;28;20189;-71
2023/01/08 04:12:19;;;;;;;2.30;2.20;;;19.10;62.10;;;;;;4983907;28;20199;-71
2023/01/08 04:14:45;;;;;;;2.42;2.33;;;19.10;62.10;;;;;;4982880;28;20709;-71
2023/01/08 04:17:12;;;;;;;2.25;2.08;;;19.10;62.10;;;;;;4982602;28;20231;-71
2023/01/08 04:19:38;;;;;;;2.08;1.95;;;19.10;62.20;;;;;;4985548;28;20224;-71
2023/01/08 04:22:04;;;;;;;2.28;2.08;;;19.10;62.20;;;;;;4980951;28;20194;-71
2023/01/08 04:24:29;;;;;;;2.53;2.33;;;19.10;62.20;;;;;;4975218;28;20191;-71
2023/01/08 04:26:55;;;;;;;2.50;2.30;;;19.10;62.20;;;;;;4971184;28;20192;-71
2023/01/08 04:29:21;;;;;;;2.40;2.15;;;19.10;62.20;;;;;;4968798;28;20203;-71
2023/01/08 04:31:46;;;;;;;2.10;2.00;;;19.10;62.20;;;;;;4980431;28;20193;-71
2023/01/08 04:34:12;;;;;;;2.38;2.28;;;19.10;62.20;;;;;;4978495;28;20190;-71
2023/01/08 04:36:38;;;;;;;2.17;1.98;;;19.10;62.20;;;;;;4989335;28;20220;-70
2023/01/08 04:39:04;;;;;;;2.38;2.17;;;19.10;62.20;;;;;;4987721;28;20185;-70
2023/01/08 04:41:30;;;;;;;2.53;2.33;;;19.10;62.20;;;;;;4983649;28;20228;-70
2023/01/08 04:43:56;;;;;;;2.38;2.17;;;19.10;62.20;;;;;;4998165;28;20213;-70
2023/01/08 04:46:21;;;;;;;2.40;2.20;;;19.10;62.20;;;;;;4974929;28;20234;-70
2023/01/08 04:48:47;;;;;;;2.35;2.25;;;19.10;62.20;;;;;;4975027;28;20182;-70
2023/01/08 04:51:13;;;;;;;2.47;2.35;;;19.10;62.20;;;;;;4973647;28;20189;-70
2023/01/08 04:53:40;;;;;;;2.22;2.10;;;19.10;63.00;;;;;;4972730;28;20226;-70
2023/01/08 04:56:10;;;;;;;2.00;1.90;;;19.10;62.20;;;;;;4974768;28;20213;-70
2023/01/08 04:58:37;;;;;;;2.13;2.00;;;19.10;62.20;;;;;;4989698;28;20186;-70
2023/01/08 05:01:22;;;;;;;2.25;2.05;;;19.10;62.20;;;;;;4992238;28;20228;-70
2023/01/08 05:03:54;;;;;;;2.47;2.28;;;19.10;62.20;;;;;;4981209;28;20220;-70
2023/01/08 05:06:20;;;;;;;2.70;2.50;;;19.20;62.30;;;;;;4989522;28;20200;-70
2023/01/08 05:08:45;;;;;;;2.38;2.17;;;19.10;62.20;;;;;;4997803;28;20623;-70
2023/01/08 05:11:11;;;;;;;2.30;2.20;;;19.20;62.40;;;;;;4973416;28;20189;-70
2023/01/08 05:13:37;;;;;;;2.63;2.42;;;19.10;62.20;;;;;;4965261;28;20193;-70
2023/01/08 05:16:03;;;;;;;2.15;2.03;;;19.10;62.30;;;;;;4978884;28;20240;-70
2023/01/08 05:18:29;;;;;;;2.53;2.30;;;19.10;62.20;;;;;;4973209;28;20178;-70
2023/01/08 05:21:00;;;;;;;2.30;2.13;;;19.10;62.20;;;;;;4973302;28;20216;-70
2023/01/08 05:23:28;;;;;;;2.10;1.88;;;19.10;62.20;;;;;;4990168;28;20220;-70
2023/01/08 05:26:00;;;;;;;2.67;2.47;;;19.10;62.20;;;;;;4973050;28;20255;-70
2023/01/08 05:28:27;;;;;;;2.50;2.30;;;19.10;62.30;;;;;;4986291;28;20681;-70
2023/01/08 05:30:53;;;;;;;2.53;2.33;;;19.10;62.20;;;;;;4969030;28;20222;-70
2023/01/08 05:33:20;;;;;;;2.75;2.42;;;19.10;62.20;;;;;;4976978;28;20182;-70
2023/01/08 05:35:45;;;;;;;2.22;2.10;;;19.10;62.20;;;;;;4988858;28;20213;-70
2023/01/08 05:38:11;;;;;;;2.45;2.25;;;19.20;62.30;;;;;;4973805;28;20192;-70
2023/01/08 05:40:37;;;;;;;2.70;2.50;;;19.10;62.20;;;;;;4990722;28;20224;-70
2023/01/08 05:43:04;;;;;;;2.50;2.30;;;19.10;62.20;;;;;;4978721;28;20232;-70
2023/01/08 05:45:31;;;;;;;2.05;1.95;;;19.10;62.20;;;;;;4988586;28;20231;-70
2023/01/08 05:47:57;;;;;;;2.47;2.28;;;19.20;62.30;;;;;;4972479;28;20204;-70
2023/01/08 05:50:23;;;;;;;2.38;2.17;;;19.20;62.30;;;;;;4972704;28;20192;-70
2023/01/08 05:52:48;;;;;;;2.00;1.90;;;19.10;62.20;;;;;;4992140;28;20192;-70
2023/01/08 05:55:14;;;;;;;2.20;2.08;;;19.10;62.10;;;;;;4984155;28;20282;-70
2023/01/08 05:57:40;;;;;;;2.10;2.00;;;19.10;62.20;;;;;;4981544;28;20196;-70
2023/01/08 06:00:08;;;;;;;2.17;2.00;;;19.20;62.30;;;;;;4978009;28;20252;-70
2023/01/08 06:02:37;;;;;;;2.28;2.17;;;19.20;62.30;;;;;;4990084;28;20192;-70
2023/01/08 06:05:03;;;;;;;2.50;2.30;;;19.10;62.20;;;;;;4973541;28;20201;-70
2023/01/08 06:07:29;;;;;;;2.50;2.30;;;19.20;62.20;;;;;;4969380;28;20186;-70
2023/01/08 06:09:54;;;;;;;2.60;2.40;;;19.20;62.20;;;;;;4980329;28;20197;-70
2023/01/08 06:12:20;;;;;;;2.10;2.00;;;19.20;62.20;;;;;;4972038;28;20196;-70
2023/01/08 06:14:46;;;;;;;3.15;2.95;;;19.10;62.10;;;;;;4975211;28;20216;-70
2023/01/08 06:17:12;;;;;;;2.63;2.42;;;19.20;62.20;;;;;;4975498;28;20188;-70
2023/01/08 06:19:40;;;;;;;2.85;2.65;;;19.20;62.20;;;;;;4992377;28;20255;-70
2023/01/08 06:22:06;;;;;;;2.38;2.17;;;19.10;62.10;;;;;;4991501;28;20181;-70
2023/01/08 06:24:33;;;;;;;2.67;2.47;;;19.20;62.20;;;;;;4975587;28;20292;-70
2023/01/08 06:26:59;;;;;;;2.78;2.58;;;19.20;62.20;;;;;;4991622;28;20249;-70
2023/01/08 06:29:24;;;;;;;2.38;2.17;;;19.20;62.20;;;;;;4959458;28;20283;-70
2023/01/08 06:31:50;;;;;;;2.65;2.45;;;19.20;62.20;;;;;;4983457;28;20185;-70
2023/01/08 06:34:16;;;;;;;2.67;2.47;;;19.20;62.20;;;;;;4991519;28;20184;-70
2023/01/08 06:36:42;;;;;;;2.78;2.13;;;19.20;62.20;;;;;;4989219;28;20225;-70
2023/01/08 06:39:08;;;;;;;2.50;2.30;;;19.20;62.10;;;;;;4963911;28;20196;-70
2023/01/08 06:41:34;;;;;;;2.70;2.50;;;19.20;62.10;;;;;;4971990;28;20193;-70
2023/01/08 06:44:00;;;;;;;2.88;2.55;;;19.20;62.10;;;;;;4984376;28;20247;-70
2023/01/08 06:46:26;;;;;;;3.00;2.70;;;19.20;62.10;;;;;;4987945;28;20221;-70
2023/01/08 06:48:51;;;;;;;2.28;2.08;;;19.20;62.10;;;;;;4971698;28;20193;-70
2023/01/08 06:51:17;;;;;;;2.90;2.60;;;19.20;62.10;;;;;;4979998;28;20209;-70
2023/01/08 06:53:43;;;;;;;3.47;2.40;;;19.20;62.10;;;;;;4983459;28;20228;-70
2023/01/08 06:56:09;;;;;;;2.92;2.47;;;19.20;62.10;;;;;;4981569;28;20210;-70
2023/01/08 06:58:37;;;;;;;2.80;2.60;;;19.20;62.20;;;;;;4991693;28;20205;-70
2023/01/08 07:01:03;;;;;;;2.25;2.08;;;19.20;62.10;;;;;;4959918;28;20232;-70
2023/01/08 07:03:29;;;;;;;2.13;2.00;;;19.20;62.10;;;;;;4967494;28;20594;-70
2023/01/08 07:05:56;;;;;;;2.42;2.22;;;19.20;62.10;;;;;;4987360;28;20204;-70
2023/01/08 07:08:22;;;;;;;3.63;2.33;;;19.20;62.10;;;;;;4987714;28;20268;-70
2023/01/08 07:10:48;;;;;;;2.65;2.45;;;19.20;62.10;;;;;;4975590;28;20316;-70
2023/01/08 07:13:14;;;;;;;2.55;2.35;;;19.20;62.10;;;;;;4984819;28;20631;-70
2023/01/08 07:15:41;;;;;;;2.00;1.90;;;19.20;62.10;;;;;;4991602;28;20752;-70
2023/01/08 07:18:09;;;;;;;2.33;2.13;;;19.20;62.10;;;;;;4972364;28;20193;-70
2023/01/08 07:20:36;;;;;;;2.47;2.28;;;19.20;62.10;;;;;;4977700;28;20220;-70
2023/01/08 07:23:04;;;;;;;2.05;1.85;;;19.20;62.10;;;;;;4975501;28;20197;-70
2023/01/08 07:25:30;;;;;;;2.38;2.17;;;19.20;62.10;;;;;;4975237;28;20214;-70
2023/01/08 07:27:57;;;;;;;2.38;2.17;;;19.20;62.20;;;;;;4983059;28;20186;-70
2023/01/08 07:30:23;;;;;;;2.58;2.38;;;19.20;62.10;;;;;;4976469;28;20225;-71
2023/01/08 07:32:49;;;;;;;2.22;2.03;;;19.20;62.20;;;;;;4958985;28;20256;-70
2023/01/08 07:35:15;;;;;;;2.50;2.30;;;19.20;62.10;;;;;;4975258;28;20304;-70
2023/01/08 07:37:42;;;;;;;2.33;2.13;;;19.20;62.20;;;;;;4976575;28;20194;-70
2023/01/08 07:40:10;;;;;;;2.00;1.90;;;19.20;62.10;;;;;;4981443;28;20217;-70
2023/01/08 07:42:37;;;;;;;2.25;2.05;;;19.20;62.10;;;;;;4974920;28;20246;-70
2023/01/08 07:45:03;;;;;;;2.38;2.17;;;19.20;62.20;;;;;;4997011;23;20232;-66
2023/01/08 07:47:29;;;;;;;2.00;1.90;;;19.20;62.20;;;;;;4994091;28;20207;-65
2023/01/08 07:49:55;;;;;;;2.00;1.90;;;19.20;62.10;;;;;;4989610;28;20664;-67
2023/01/08 07:52:21;;;;;;;1.95;1.85;;;19.20;62.20;;;;;;5009451;28;20203;-67
2023/01/08 07:54:47;;;;;;;2.13;1.92;;;19.20;62.20;;;;;;5014849;28;20188;-66
2023/01/08 07:57:12;;;;;;;2.22;1.85;;;19.20;62.20;;;;;;5013743;28;20184;-67
2023/01/08 07:59:38;;;;;;;2.00;1.80;;;19.20;62.20;;;;;;5013355;28;20695;-66
2023/01/08 08:02:04;;;;;;;2.28;1.85;;;19.20;62.20;;;;;;5013480;28;20191;-67
2023/01/08 08:04:30;;;;;;;1.80;1.70;;;19.20;62.20;;;;;;4993431;28;20196;-67
2023/01/08 08:06:56;;;;;;;1.90;1.80;;;19.20;62.20;;;;;;4986986;28;20201;-66
2023/01/08 08:09:22;;;;;;;1.98;1.85;;;19.20;62.20;;;;;;5013244;28;20180;-66
2023/01/08 08:11:47;;;;;;;1.90;1.80;;;19.20;62.20;;;;;;5013584;28;20188;-66
2023/01/08 08:14:13;;;;;;;1.92;1.75;;;19.20;62.30;;;;;;4991694;28;20185;-66
2023/01/08 08:16:39;;;;;;;1.83;1.73;;;19.20;62.20;;;;;;4994767;28;20208;-66
2023/01/08 08:19:05;;;;;;;1.85;1.75;;;19.20;62.30;;;;;;5013954;28;20184;-67
2023/01/08 08:21:31;;;;;;;1.75;1.65;;;19.20;62.20;;;;;;5013328;28;20222;-67
2023/01/08 08:23:57;;;;;;;1.77;1.67;;;19.20;62.30;;;;;;4997018;28;20185;-67
2023/01/08 08:26:23;;;;;;;1.83;1.73;;;19.20;62.30;;;;;;5012957;28;20200;-66
2023/01/08 08:28:48;;;;;;;1.80;1.70;;;19.20;62.30;;;;;;4995349;28;20220;-66
2023/01/08 08:31:15;;;;;;;1.50;1.40;;;19.20;62.30;;;;;;5014335;28;20207;-66
2023/01/08 08:33:41;;;;;;;1.75;1.50;;;19.20;62.30;;;;;;4994291;28;20287;-67
2023/01/08 08:36:07;;;;;;;1.80;1.70;;;19.30;62.40;;;;;;4996014;28;20299;-65
2023/01/08 08:38:33;;;;;;;1.73;1.58;;;19.20;62.30;;;;;;4996532;28;20184;-66
2023/01/08 08:40:59;;;;;;;1.70;1.60;;;19.20;62.30;;;;;;5012651;28;20211;-67
2023/01/08 08:43:24;;;;;;;1.95;1.75;;;19.20;62.40;;;;;;5013289;28;20191;-65
2023/01/08 08:45:50;;;;;;;1.52;1.42;;;19.30;62.40;;;;;;4996445;28;20224;-67
2023/01/08 08:48:16;;;;;;;1.50;1.40;;;19.20;62.40;;;;;;4993000;28;20177;-66
2023/01/08 08:50:42;;;;;;;1.85;1.75;;;19.20;62.40;;;;;;4996267;28;20191;-67
2023/01/08 08:53:09;;;;;;;1.33;1.23;;;19.20;62.40;;;;;;5013082;28;20184;-67
2023/01/08 08:55:35;;;;;;;1.67;1.58;;;19.20;62.40;;;;;;4993740;28;20298;-67
2023/01/08 08:58:09;;;;;;;1.38;1.27;;;19.30;62.60;;;;;;5012123;28;20249;-67
2023/01/08 09:00:38;;;;;;;1.83;1.50;;;19.20;62.40;;;;;;5012471;28;20596;-67
2023/01/08 09:03:04;;;;;;;1.70;1.60;;;19.30;62.50;;;;;;4993288;28;20275;-66
2023/01/08 09:05:30;;;;;;;2.65;1.30;;;19.30;62.50;;;;;;5008410;28;20208;-67
2023/01/08 09:07:56;;;;;;;1.40;1.30;;;19.30;62.50;;;;;;5012167;28;20184;-66
2023/01/08 09:10:22;;;;;;;1.42;1.33;;;19.20;62.40;;;;;;4995929;28;20180;-66
2023/01/08 09:12:48;;;;;;;1.60;1.50;;;19.30;62.50;;;;;;5012376;28;20188;-66
2023/01/08 09:15:15;;;;;;;1.70;1.60;;;19.20;62.40;;;;;;5012380;28;20289;-66
2023/01/08 09:17:40;;;;;;;1.60;1.50;;;19.30;62.50;;;;;;5012995;28;20267;-66
2023/01/08 09:20:07;;;;;;;1.40;1.30;;;19.30;62.50;;;;;;4995935;28;20365;-66
2023/01/08 09:22:32;;;;;;;1.58;1.48;;;19.30;62.50;;;;;;5012253;28;20191;-66
2023/01/08 09:24:58;;;;;;;1.45;1.35;;;19.30;62.50;;;;;;5012039;28;20211;-66
2023/01/08 09:27:24;;;;;;;1.40;1.20;;;19.30;62.50;;;;;;5012180;28;20593;-66
2023/01/08 09:29:49;;;;;;;1.27;1.17;;;19.30;62.50;;;;;;4995866;28;20192;-66
2023/01/08 09:32:15;;;;;;;1.30;1.20;;;19.30;62.50;;;;;;5012393;28;20197;-66
2023/01/08 09:34:41;;;;;;;2.47;1.50;;;19.30;62.50;;;;;;5011905;28;20192;-65
2023/01/08 09:37:06;;;;;;;1.60;1.50;;;19.30;62.50;;;;;;5012020;28;20184;-66
2023/01/08 09:39:33;;;;;;;1.70;1.60;;;19.30;62.50;;;;;;5011815;28;20259;-66
2023/01/08 09:42:04;;;;;;;1.52;1.40;;;19.30;62.50;;;;;;4993781;28;20195;-67
2023/01/08 09:44:39;;;;;;;1.45;1.35;;;19.30;62.50;;;;;;5008786;28;20191;-66
2023/01/08 09:47:27;;;;;;;1.40;1.30;;;19.30;62.50;;;;;;4995399;28;20195;-66
2023/01/08 09:50:00;;;;;;;1.35;1.27;;;19.30;62.50;;;;;;5011699;28;20661;-66
2023/01/08 09:52:27;;;;;;;1.48;1.38;;;19.30;62.50;;;;;;4995563;28;20214;-66
2023/01/08 09:54:53;;;;;;;1.25;1.15;;;19.30;62.50;;;;;;5012709;28;20192;-65
2023/01/08 09:57:21;;;;;;;1.10;1.10;;;19.30;62.50;;;;;;4995263;28;20208;-66
2023/01/08 09:59:48;;;;;;;1.55;1.20;;;19.30;62.50;;;;;;4987045;28;20208;-66
2023/01/08 10:02:24;;;;;;;1.42;1.33;;;19.30;62.50;;;;;;5011679;28;20181;-66
2023/01/08 10:04:59;;;;;;;2.17;1.45;;;19.30;62.50;;;;;;5011176;28;20192;-66
2023/01/08 10:07:27;;;;;;;1.33;1.23;;;19.30;62.50;;;;;;5011527;28;20195;-67
2023/01/08 10:09:54;;;;;;;1.38;1.27;;;19.30;62.50;;;;;;5011187;28;20195;-66
2023/01/08 10:12:27;;;;;;;1.20;1.10;;;19.30;62.50;;;;;;5011555;28;20275;-66
2023/01/08 10:14:59;;;;;;;1.38;1.20;;;19.30;62.50;;;;;;5012457;28;20238;-67
2023/01/08 10:17:26;;;;;;;1.08;1.08;;;19.30;62.60;;;;;;5011233;28;20196;-67
2023/01/08 10:19:53;;;;;;;1.42;1.20;;;19.30;62.60;;;;;;5003020;28;20246;-66
2023/01/08 10:22:32;;;;;;;1.30;1.20;;;19.30;62.60;;;;;;4995294;28;20235;-66
2023/01/08 10:25:10;;;;;;;1.20;1.10;;;19.30;62.70;;;;;;5011324;28;20184;-66
2023/01/08 10:28:01;;;;;;;1.33;1.10;;;19.30;62.70;;;;;;5012002;28;20207;-66
2023/01/08 10:30:29;;;;;;;1.77;1.20;;;19.30;62.60;;;;;;4991615;28;20276;-66
2023/01/08 10:33:02;;;;;;;1.30;1.20;;;19.30;62.70;;;;;;5010241;28;20242;-64
2023/01/08 10:35:36;;;;;;;1.23;1.13;;;19.30;62.70;;;;;;5011103;28;20216;-67
2023/01/08 10:38:02;;;;;;;1.92;1.00;;;19.40;62.80;;;;;;4994217;28;20203;-67
2023/01/08 10:40:47;;;;;;;1.30;1.20;;;19.30;62.70;;;;;;4994977;28;20200;-67
2023/01/08 10:43:18;;;;;;;1.20;1.10;;;19.30;62.70;;;;;;4990248;28;20240;-67
2023/01/08 10:46:20;;;;;;;1.63;1.40;;;19.30;62.70;;;;;;5007843;28;20310;-67
2023/01/08 10:48:54;;;;;;;0.95;0.95;;;19.30;62.70;;;;;;5011099;28;20180;-67
2023/01/08 10:51:22;;;;;;;1.20;1.10;;;19.30;62.70;;;;;;5010299;28;20184;-66
2023/01/08 10:53:49;;;;;;;1.30;1.20;;;19.30;62.80;;;;;;4994083;28;20184;-66
2023/01/08 10:56:27;;;;;;;1.52;1.30;;;19.40;62.80;;;;;;5009319;28;20200;-66
2023/01/08 10:58:54;;;;;;;1.90;1.33;;;19.30;62.70;;;;;;4992825;28;20251;-66
2023/01/08 11:01:28;;;;;;;1.20;1.08;;;19.30;62.70;;;;;;5010863;28;20243;-67
2023/01/08 11:04:03;;;;;;;1.30;1.20;;;19.40;62.90;;;;;;5011892;28;20552;-66
2023/01/08 11:06:33;;;;;;;1.15;1.13;;;19.40;62.80;;;;;;4994731;28;20196;-66
2023/01/08 11:09:20;;;;;;;1.15;1.05;;;19.30;62.70;;;;;;4986007;28;20184;-66
2023/01/08 11:11:47;;;;;;;1.10;1.10;;;19.40;62.70;;;;;;5010773;28;20708;-66
2023/01/08 11:14:34;;;;;;;1.42;1.05;;;19.40;62.80;;;;;;5012163;28;20652;-66
2023/01/08 11:17:09;;;;;;;0.90;0.90;;;19.30;62.60;;;;;;5010671;28;20211;-66
2023/01/08 11:19:35;;;;;;;1.20;1.10;;;19.40;62.80;;;;;;4994124;28;20220;-66
2023/01/08 11:22:04;;;;;;;1.58;1.17;;;19.40;62.80;;;;;;4994381;28;20188;-66
2023/01/08 11:24:33;;;;;;;2.28;1.20;;;19.40;62.70;;;;;;5010272;28;20254;-67
2023/01/08 11:27:01;;;;;;;1.33;1.20;;;19.40;62.80;;;;;;5010310;28;20219;-66
2023/01/08 11:29:46;;;;;;;1.20;1.10;;;19.40;62.80;;;;;;5010638;28;20191;-67
2023/01/08 11:32:14;;;;;;;1.05;1.05;;;19.40;62.70;;;;;;5006622;28;20184;-66
2023/01/08 11:34:59;;;;;;;1.42;1.10;;;19.40;62.70;;;;;;5010246;28;20218;-66
2023/01/08 11:37:38;;;;;;;1.25;1.20;;;19.40;62.60;;;;;;5004963;28;20266;-67
2023/01/08 11:40:14;;;;;;;0.88;0.88;;;19.40;62.70;;;;;;5011411;28;20262;-67
2023/01/08 11:43:17;;;;;;;1.10;1.00;;;19.40;62.70;;;;;;4997509;28;20172;-66
2023/01/08 11:46:31;;;;;;;1.35;1.20;;;19.40;62.70;;;;;;5010361;28;20219;-66
2023/01/08 11:49:46;;;;;;;0.95;0.90;;;19.40;62.80;;;;;;4997505;28;20245;-67
2023/01/08 11:52:40;;;;;;;1.52;0.95;;;19.40;62.80;;;;;;4968910;28;20290;-67
2023/01/08 11:55:23;;;;;;;1.10;1.00;;;19.40;62.80;;;;;;4997330;28;20231;-67
2023/01/08 11:58:01;;;;;;;0.90;0.90;;;19.40;62.70;;;;;;4995009;28;20189;-66
2023/01/08 12:01:21;;;;;;;1.50;1.20;;;19.40;62.70;;;;;;5013896;28;20215;-67
2023/01/08 12:04:27;;;;;;;1.40;0.90;;;19.40;62.70;;;;;;5010379;28;20250;-65
2023/01/08 12:07:35;;;;;;;0.88;0.88;;;19.40;62.70;;;;;;4997443;28;20214;-68
2023/01/08 12:10:33;;;;;;;1.50;0.88;;;19.40;63.00;;;;;;4998750;28;20208;-68
2023/01/08 12:13:27;;;;;;;1.20;1.02;;;19.40;62.70;;;;;;5016336;28;20226;-67
2023/01/08 12:16:40;;;;;;;1.13;1.02;;;19.40;62.80;;;;;;4997205;28;20615;-67
2023/01/08 12:19:11;;;;;;;1.33;1.00;;;19.40;62.80;;;;;;5014534;28;20227;-66
2023/01/08 12:22:26;;;;;;;1.35;1.10;;;19.50;62.90;;;;;;5014801;28;20188;-67
2023/01/08 12:25:31;;;;;;;0.90;0.90;;;19.40;62.70;;;;;;5010688;28;20196;-67
2023/01/08 12:28:33;;;;;;;2.15;1.00;;;19.40;62.80;;;;;;5012346;28;20318;-67
2023/01/08 12:31:51;;;;;;;0.70;0.70;;;19.40;62.70;;;;;;4995198;28;20203;-67
2023/01/08 12:34:39;;;;;;;0.80;0.80;;;19.40;62.70;;;;;;5012808;28;20198;-68
2023/01/08 12:37:17;;;;;;;0.93;0.93;;;19.40;62.70;;;;;;5012991;28;20231;-67
2023/01/08 12:40:05;;;;;;;1.20;1.10;;;19.40;62.70;;;;;;5012628;28;20231;-67
2023/01/08 12:42:39;;;;;;;2.30;1.20;;;19.40;62.80;;;;;;5013015;28;20207;-67
2023/01/08 12:45:29;;;;;;;1.05;1.05;;;19.40;62.70;;;;;;5012345;28;20283;-67
2023/01/08 12:48:11;;;;;;;1.23;1.13;;;19.40;62.80;;;;;;5012455;28;20184;-68
2023/01/08 12:50:51;;;;;;;1.88;0.90;;;19.40;62.80;;;;;;5002262;28;20215;-66
2023/01/08 12:53:42;;;;;;;0.88;0.88;;;19.40;62.80;;;;;;4996215;28;20263;-67
2023/01/08 12:56:32;;;;;;;0.77;0.77;;;19.40;62.80;;;;;;4995931;28;20219;-67
2023/01/08 12:59:22;;;;;;;1.10;1.00;;;19.40;62.80;;;;;;5012032;28;20675;-67
2023/01/08 13:02:09;;;;;;;1.10;0.80;;;19.40;62.90;;;;;;5012418;28;20203;-66
2023/01/08 13:04:41;;;;;;;1.63;1.00;;;19.40;62.90;;;;;;5012532;28;20194;-67
2023/01/08 13:07:19;;;;;;;2.05;1.10;;;19.40;62.80;;;;;;5012403;28;20295;-67
2023/01/08 13:09:53;;;;;;;1.48;1.00;;;19.40;62.90;;;;;;5012312;28;20198;-66
2023/01/08 13:12:32;;;;;;;1.27;1.00;;;19.40;62.80;;;;;;5011269;28;20206;-66